Terminal Aerodrome Forecast
Issued by NWS Sioux Falls, SD

Home | Current Version | Previous Version | Text Only | Print | Product List | Glossary On
Versions: 1 2 3 4 5 6 7 8 9 10 11 12 13 14 15 16 17 18 19 20 21 22 23 24 25 26 27 28 29 30 31 32
000
FTUS43 KFSD 182329
TAFSUX
TAF
KSUX 182329Z 1900/1924 13008KT P6SM SCT015 OVC100
     FM190900 21006KT P6SM VCSH SCT025 BKN080
     FM191300 33012KT P6SM SCT025 BKN060
     FM191500 34013G19KT P6SM BKN035
     FM191800 34023G33KT P6SM BKN060=

USA.gov is the U.S. government's official web portal to all federal, state and local government web resources and services.